Time;durP1;ratioP1;P1;durP2;ratioP2;P2;SDS_P1;SDS_P2;PMS_P1;PMS_P2;Temp;Humidity;BMP_temperature;BMP_pressure;BME280_temperature;BME280_humidity;BME280_pressure;Samples;Min_cycle;Max_cycle;Signal;HPM_P1;HPM_P2
2023/08/01 00:01:54;;;;;;;0.10;0.10;;;;;;;16.64;100.00;97962.69;5113422;28;20202;-58
2023/08/01 00:04:41;;;;;;;0.00;0.00;;;;;;;16.66;100.00;97952.66;5113002;28;20328;-59
2023/08/01 00:07:29;;;;;;;0.07;0.07;;;;;;;16.63;100.00;97951.16;5113083;28;20707;-59
2023/08/01 00:10:17;;;;;;;0.10;0.10;;;;;;;16.58;100.00;97940.94;5113147;28;20232;-58
2023/08/01 00:13:04;;;;;;;0.10;0.10;;;;;;;16.55;100.00;97935.94;5113125;28;20182;-58
2023/08/01 00:15:51;;;;;;;0.10;0.10;;;;;;;16.58;100.00;97937.44;5112978;28;20545;-58
2023/08/01 00:18:53;;;;;;;0.10;0.10;;;;;;;16.50;100.00;97924.06;5113138;28;20208;-59
2023/08/01 00:21:40;;;;;;;0.10;0.10;;;;;;;16.53;100.00;97913.88;5111724;28;20214;-59
2023/08/01 00:24:28;;;;;;;0.00;0.00;;;;;;;16.46;100.00;97891.50;5111953;28;20218;-59
2023/08/01 00:27:15;;;;;;;0.10;0.10;;;;;;;16.54;100.00;97837.19;5113049;28;20680;-59
2023/08/01 00:30:01;;;;;;;0.10;0.10;;;;;;;16.45;100.00;97832.84;5111897;28;20202;-56
2023/08/01 00:32:48;;;;;;;0.03;0.03;;;;;;;16.45;100.00;97836.38;5113076;28;20264;-56
2023/08/01 00:35:35;;;;;;;0.10;0.10;;;;;;;16.41;100.00;97837.72;5111417;28;20233;-56
2023/08/01 00:38:22;;;;;;;0.10;0.10;;;;;;;16.41;100.00;97842.22;5112875;28;20610;-56
2023/08/01 00:41:10;;;;;;;0.10;0.10;;;;;;;16.38;100.00;97838.03;5112827;28;20193;-59
2023/08/01 00:43:58;;;;;;;0.10;0.10;;;;;;;16.35;100.00;97837.53;5112820;28;20215;-59
2023/08/01 00:46:45;;;;;;;0.10;0.10;;;;;;;16.36;100.00;97837.38;5112957;28;20445;-59
2023/08/01 00:49:32;;;;;;;0.10;0.10;;;;;;;16.37;100.00;97843.53;5111860;28;20368;-59
2023/08/01 00:52:21;;;;;;;0.10;0.10;;;;;;;16.33;100.00;97840.38;5111848;28;20194;-59
2023/08/01 00:55:09;;;;;;;0.10;0.10;;;;;;;16.40;100.00;97838.69;5111664;28;20194;-59
2023/08/01 00:57:57;;;;;;;0.00;0.00;;;;;;;16.35;100.00;97841.03;5112807;28;20506;-59
2023/08/01 01:00:44;;;;;;;0.10;0.10;;;;;;;16.36;100.00;97837.38;5112734;28;20308;-59
2023/08/01 01:03:32;;;;;;;0.10;0.10;;;;;;;16.37;100.00;97854.22;5108248;28;20218;-59
2023/08/01 01:06:23;;;;;;;0.00;0.00;;;;;;;16.36;100.00;97853.41;5111336;28;20201;-59
2023/08/01 01:09:17;;;;;;;0.10;0.10;;;;;;;16.34;100.00;97818.00;5116291;28;20225;-59
2023/08/01 01:12:04;;;;;;;0.10;0.10;;;;;;;16.31;100.00;97468.31;5115890;28;20193;-60
2023/08/01 01:14:52;;;;;;;0.10;0.10;;;;;;;16.37;100.00;97448.91;5116174;28;20247;-59
2023/08/01 01:17:40;;;;;;;0.10;0.10;;;;;;;16.38;100.00;97426.50;5116179;28;20186;-60
2023/08/01 01:20:34;;;;;;;0.07;0.07;;;;;;;16.33;100.00;97428.91;5114644;28;20202;-60
2023/08/01 01:23:22;;;;;;;0.10;0.10;;;;;;;16.34;100.00;97422.53;5116092;28;20213;-60
2023/08/01 01:26:10;;;;;;;0.10;0.10;;;;;;;16.45;100.00;97415.94;5115884;28;20194;-60
2023/08/01 01:28:57;;;;;;;0.10;0.10;;;;;;;16.40;100.00;97416.47;5115838;28;20237;-61
2023/08/01 01:31:45;;;;;;;0.00;0.00;;;;;;;16.46;100.00;97423.78;5116061;28;20206;-61
2023/08/01 01:34:31;;;;;;;0.10;0.10;;;;;;;16.45;100.00;97405.25;5115737;28;20222;-61
2023/08/01 01:37:20;;;;;;;0.00;0.00;;;;;;;16.46;100.00;97381.03;5114761;28;20557;-61
2023/08/01 01:40:08;;;;;;;0.00;0.00;;;;;;;16.44;100.00;97383.06;5114785;28;20197;-60
2023/08/01 01:42:55;;;;;;;0.10;0.10;;;;;;;16.43;100.00;97333.28;5114711;28;20244;-61
2023/08/01 01:45:42;;;;;;;0.00;0.00;;;;;;;16.42;100.00;97333.47;5115503;28;20214;-61
2023/08/01 01:48:28;;;;;;;0.10;0.10;;;;;;;16.45;100.00;97333.94;5114608;28;20214;-61
2023/08/01 01:51:15;;;;;;;0.10;0.10;;;;;;;16.47;100.00;97321.22;5114393;28;20274;-60
2023/08/01 01:54:04;;;;;;;0.00;0.00;;;;;;;16.47;100.00;97307.03;5115389;28;20236;-60
2023/08/01 01:56:51;;;;;;;7.23;4.87;;;;;;;16.47;100.00;97297.16;5114467;28;20241;-61
2023/08/01 01:59:37;;;;;;;5.53;4.10;;;;;;;16.49;100.00;97305.84;5114287;28;20672;-60
2023/08/01 02:02:24;;;;;;;7.13;4.43;;;;;;;16.55;100.00;97313.13;5114213;28;20198;-60
2023/08/01 02:05:11;;;;;;;5.33;3.80;;;;;;;16.60;100.00;97316.09;5112588;28;20226;-60
2023/08/01 02:07:58;;;;;;;4.63;3.07;;;;;;;16.68;100.00;97306.31;5115099;28;20193;-60
2023/08/01 02:10:47;;;;;;;6.37;3.67;;;;;;;16.68;100.00;97306.31;5115257;28;20206;-61
2023/08/01 02:13:35;;;;;;;5.27;3.70;;;;;;;16.58;100.00;97291.38;5114097;28;20190;-60
2023/08/01 02:16:21;;;;;;;4.63;3.33;;;;;;;16.55;100.00;97282.91;5115098;28;20202;-61
2023/08/01 02:19:09;;;;;;;5.57;4.00;;;;;;;16.52;100.00;97269.91;5113571;28;20692;-61
2023/08/01 02:21:56;;;;;;;5.53;4.03;;;;;;;16.49;100.00;97252.38;5112588;28;20198;-60
2023/08/01 02:24:43;;;;;;;7.70;4.67;;;;;;;16.49;100.00;97254.22;5113602;28;20209;-60
2023/08/01 02:27:31;;;;;;;5.30;3.70;;;;;;;16.50;100.00;97266.56;5114751;28;20190;-60
2023/08/01 02:30:18;;;;;;;6.30;4.27;;;;;;;16.50;100.00;97247.88;5114694;28;20312;-60
2023/08/01 02:33:05;;;;;;;6.23;3.83;;;;;;;16.57;100.00;97235.44;5113656;28;20194;-60
2023/08/01 02:35:52;;;;;;;9.43;4.53;;;;;;;16.62;100.00;97237.59;5112945;28;20221;-60
2023/08/01 02:38:39;;;;;;;6.10;4.77;;;;;;;16.56;100.00;97233.78;5113522;28;20336;-60
2023/08/01 02:41:26;;;;;;;5.70;4.47;;;;;;;16.65;100.00;97205.13;5113451;28;20194;-60
2023/08/01 02:44:14;;;;;;;7.47;4.77;;;;;;;16.67;100.00;97209.25;5114402;28;20687;-60
2023/08/01 02:47:01;;;;;;;6.47;4.77;;;;;;;16.66;100.00;97209.44;5114331;28;20209;-60
2023/08/01 02:49:48;;;;;;;6.90;4.50;;;;;;;16.70;100.00;97216.16;5113547;28;20198;-60
2023/08/01 02:52:35;;;;;;;7.37;4.43;;;;;;;16.80;100.00;97220.19;5114269;28;20692;-60
2023/08/01 02:55:22;;;;;;;6.10;4.50;;;;;;;16.81;100.00;97216.50;5113175;28;20750;-60
2023/08/01 02:58:09;;;;;;;6.13;4.50;;;;;;;16.75;100.00;97222.56;5113201;28;20689;-60
2023/08/01 03:00:57;;;;;;;6.83;3.70;;;;;;;16.79;100.00;97220.34;5114056;28;20202;-60
2023/08/01 03:03:44;;;;;;;5.60;3.80;;;;;;;17.00;100.00;97216.94;5114159;28;20186;-60
2023/08/01 03:06:31;;;;;;;4.67;3.47;;;;;;;16.92;100.00;97201.00;5112502;28;20245;-60
2023/08/01 03:09:17;;;;;;;4.23;3.37;;;;;;;16.98;100.00;97233.16;5112957;28;20194;-60
2023/08/01 03:12:05;;;;;;;6.47;3.63;;;;;;;17.10;100.00;97212.13;5113002;28;20320;-61
2023/08/01 03:14:52;;;;;;;8.13;4.43;;;;;;;16.89;100.00;97191.50;5113837;28;20253;-60
2023/08/01 03:17:40;;;;;;;5.40;3.80;;;;;;;16.85;100.00;97199.06;5113685;28;20198;-60
2023/08/01 03:20:27;;;;;;;4.87;3.70;;;;;;;16.87;100.00;97180.97;5112545;28;20194;-60
2023/08/01 03:23:14;;;;;;;7.03;3.60;;;;;;;16.77;100.00;97174.25;5113790;28;20320;-60
2023/08/01 03:26:01;;;;;;;5.27;3.90;;;;;;;16.86;100.00;97165.94;5112467;28;20352;-60
2023/08/01 03:28:48;;;;;;;7.57;4.67;;;;;;;16.84;100.00;97172.50;5112405;28;20185;-61
2023/08/01 03:31:35;;;;;;;8.23;5.27;;;;;;;16.78;100.00;97147.34;5113494;28;20194;-60
2023/08/01 03:34:24;;;;;;;7.37;5.30;;;;;;;16.75;100.00;97145.03;5112403;28;20229;-60
2023/08/01 03:37:10;;;;;;;7.80;5.17;;;;;;;16.77;100.00;97147.53;5112747;28;20252;-61
2023/08/01 03:39:57;;;;;;;5.63;4.50;;;;;;;16.78;100.00;97142.00;5112447;28;20675;-61
2023/08/01 03:42:44;;;;;;;9.70;5.07;;;;;;;16.80;100.00;97145.34;5113422;28;20739;-60
2023/08/01 03:45:31;;;;;;;7.30;4.57;;;;;;;16.77;100.00;97137.66;5113298;28;20218;-60
2023/08/01 03:48:18;;;;;;;8.63;5.27;;;;;;;16.83;100.00;97128.91;5113485;28;20193;-60
2023/08/01 03:51:07;;;;;;;6.77;4.80;;;;;;;16.81;100.00;97127.44;5111187;28;20201;-60
2023/08/01 03:53:53;;;;;;;7.77;4.47;;;;;;;16.82;100.00;97123.75;5113341;28;20319;-60
2023/08/01 03:56:58;;;;;;;6.47;4.40;;;;;;;16.82;100.00;97123.75;5112230;28;20233;-60
2023/08/01 03:59:47;;;;;;;7.20;4.93;;;;;;;16.88;100.00;97139.03;5113396;28;20262;-60
2023/08/01 04:02:34;;;;;;;6.47;4.23;;;;;;;16.85;100.00;97139.41;5113246;28;20202;-60
2023/08/01 04:05:21;;;;;;;5.37;4.40;;;;;;;16.98;100.00;97144.06;5111687;28;20287;-61
2023/08/01 04:08:09;;;;;;;7.87;4.43;;;;;;;16.89;100.00;97151.41;5113167;28;20268;-60
2023/08/01 04:10:56;;;;;;;6.40;4.30;;;;;;;16.97;100.00;97156.63;5113159;28;20252;-61
2023/08/01 04:13:43;;;;;;;4.03;3.63;;;;;;;17.04;100.00;97173.59;5112973;28;20401;-61
2023/08/01 04:16:30;;;;;;;6.13;3.37;;;;;;;17.03;100.00;97177.28;5113077;28;20179;-61
2023/08/01 04:19:16;;;;;;;7.33;3.00;;;;;;;16.97;100.00;97159.28;5113112;28;20201;-60
2023/08/01 04:22:04;;;;;;;4.57;2.63;;;;;;;16.98;100.00;97160.94;5111652;28;20194;-60
2023/08/01 04:24:52;;;;;;;4.43;2.63;;;;;;;16.99;100.00;97132.38;5112153;28;20288;-61
2023/08/01 04:27:39;;;;;;;4.40;2.40;;;;;;;17.01;100.00;97143.72;5112931;28;20205;-61
2023/08/01 04:30:26;;;;;;;5.57;2.57;;;;;;;17.05;100.00;97153.84;5112964;28;20185;-61
2023/08/01 04:33:12;;;;;;;3.00;2.10;;;;;;;17.03;100.00;97131.81;5113083;28;20185;-61
2023/08/01 04:35:59;;;;;;;5.00;2.50;;;;;;;17.04;100.00;97136.13;5111204;28;20222;-61
2023/08/01 04:38:46;;;;;;;4.53;2.30;;;;;;;17.03;100.00;97134.47;5112611;28;20289;-61
2023/08/01 04:41:34;;;;;;;6.10;2.60;;;;;;;17.06;100.00;97138.63;5115000;28;20256;-61
2023/08/01 04:44:20;;;;;;;4.53;2.40;;;;;;;17.02;100.00;97143.53;5116821;28;20233;-61
2023/08/01 04:47:07;;;;;;;3.33;2.33;;;;;;;17.05;100.00;97153.84;5115538;28;20214;-61
2023/08/01 04:49:54;;;;;;;3.70;2.60;;;;;;;17.00;100.00;97145.56;5115427;28;20197;-61
2023/08/01 04:52:41;;;;;;;3.87;2.40;;;;;;;16.99;100.00;97154.59;5116751;28;20664;-61
2023/08/01 04:55:28;;;;;;;4.70;2.07;;;;;;;17.10;100.00;97164.81;5116489;28;20190;-61
2023/08/01 04:58:16;;;;;;;3.60;1.87;;;;;;;17.07;100.00;97167.84;5116584;28;20193;-61
2023/08/01 05:01:03;;;;;;;3.30;2.20;;;;;;;17.13;100.00;97179.66;5116585;28;20195;-61
2023/08/01 05:03:50;;;;;;;3.87;2.30;;;;;;;17.08;100.00;97190.94;5116353;28;20190;-61
2023/08/01 05:06:37;;;;;;;3.33;2.00;;;;;;;17.10;100.00;97198.75;5114865;28;20217;-61
2023/08/01 05:09:24;;;;;;;2.50;1.70;;;;;;;17.06;100.00;97176.88;5116377;28;20742;-60
2023/08/01 05:12:11;;;;;;;3.47;2.00;;;;;;;17.00;100.00;97161.63;5116296;28;20202;-61
2023/08/01 05:14:59;;;;;;;1.93;1.50;;;;;;;17.15;100.00;97199.00;5116352;28;20260;-60
2023/08/01 05:17:46;;;;;;;2.93;1.47;;;;;;;17.17;100.00;97187.09;5114862;28;20194;-61
2023/08/01 05:20:34;;;;;;;5.97;1.83;;;;;;;17.19;100.00;97170.06;5114772;28;20275;-61
2023/08/01 05:23:20;;;;;;;1.90;1.27;;;;;;;17.20;100.00;97174.38;5116306;28;20202;-61
2023/08/01 05:26:07;;;;;;;1.20;1.10;;;;;;;17.22;100.00;97177.69;5115885;28;20316;-61
2023/08/01 05:28:54;;;;;;;2.20;1.13;;;;;;;17.26;100.00;97169.09;5115546;28;20190;-61
2023/08/01 05:31:43;;;;;;;1.13;1.03;;;;;;;17.25;100.00;97190.69;5115880;28;20676;-61
2023/08/01 05:34:30;;;;;;;2.83;1.10;;;;;;;17.21;100.00;97197.44;5115611;28;20230;-61
2023/08/01 05:37:16;;;;;;;1.87;0.90;;;;;;;17.23;100.00;97195.41;5115704;28;20734;-61
2023/08/01 05:40:03;;;;;;;1.50;1.00;;;;;;;17.24;100.00;97181.00;5115693;28;20258;-61
2023/08/01 05:42:50;;;;;;;1.80;0.70;;;;;;;17.21;100.00;97186.75;5115300;28;20194;-60
2023/08/01 05:45:38;;;;;;;0.70;0.60;;;;;;;17.23;100.00;97198.09;5115679;28;20305;-60
2023/08/01 05:48:26;;;;;;;1.63;0.67;;;;;;;17.25;100.00;97191.50;5115218;28;20244;-61
2023/08/01 05:51:13;;;;;;;1.53;0.60;;;;;;;17.24;100.00;97199.72;5114307;28;20252;-61
2023/08/01 05:54:02;;;;;;;1.37;1.00;;;;;;;17.21;100.00;97208.16;5114139;28;20194;-60
2023/08/01 05:56:49;;;;;;;1.57;0.90;;;;;;;17.16;100.00;97214.03;5115038;28;20666;-60
2023/08/01 05:59:37;;;;;;;3.00;1.30;;;;;;;17.04;100.00;97219.06;5115133;28;20613;-60
2023/08/01 06:02:24;;;;;;;1.90;1.17;;;;;;;16.97;100.00;97215.44;5115419;28;20201;-60
2023/08/01 06:05:12;;;;;;;2.60;1.00;;;;;;;16.99;100.00;97239.38;5113675;28;20248;-60
2023/08/01 06:07:59;;;;;;;2.40;1.33;;;;;;;16.98;100.00;97232.31;5114890;28;20794;-60
2023/08/01 06:10:46;;;;;;;1.93;1.10;;;;;;;17.03;100.00;97232.63;5115181;28;20185;-60
2023/08/01 06:13:33;;;;;;;1.40;1.30;;;;;;;17.03;100.00;97228.09;5115188;28;20194;-60
2023/08/01 06:16:19;;;;;;;1.20;1.10;;;;;;;17.06;100.00;97234.91;5115036;28;20312;-60
2023/08/01 06:19:06;;;;;;;2.00;1.00;;;;;;;17.25;100.00;97238.84;5114968;28;20256;-57
2023/08/01 06:21:56;;;;;;;3.40;1.30;;;;;;;17.21;100.00;97245.59;5113579;28;20236;-57
2023/08/01 06:24:43;;;;;;;2.10;1.90;;;;;;;17.19;100.00;97253.00;5113884;28;20673;-57
2023/08/01 06:27:30;;;;;;;2.60;1.83;;;;;;;17.35;100.00;97258.13;5113710;28;20214;-57
2023/08/01 06:30:17;;;;;;;2.40;1.77;;;;;;;17.41;100.00;97278.78;5114631;28;20201;-57
2023/08/01 06:33:04;;;;;;;2.97;1.90;;;;;;;17.34;100.00;97292.06;5114402;28;20224;-57
2023/08/01 06:35:51;;;;;;;2.37;1.90;;;;;;;17.46;100.00;97301.28;5113063;28;20353;-57
2023/08/01 06:38:39;;;;;;;3.70;2.30;;;;;;;17.59;100.00;97307.81;5113693;28;20197;-57
2023/08/01 06:41:26;;;;;;;5.30;2.60;;;;;;;17.46;100.00;97319.19;5114399;28;20202;-57
2023/08/01 06:44:13;;;;;;;3.17;2.87;;;;;;;17.39;100.00;97394.06;5113895;28;20243;-57
2023/08/01 06:47:00;;;;;;;3.73;3.00;;;;;;;17.44;100.00;97407.69;5114411;28;20715;-57
2023/08/01 06:49:47;;;;;;;4.03;3.03;;;;;;;17.43;100.00;97424.78;5110286;28;20206;-57
2023/08/01 06:52:34;;;;;;;4.70;3.17;;;;;;;17.58;100.00;97446.22;5114251;28;20289;-56
2023/08/01 06:55:23;;;;;;;5.00;3.73;;;;;;;17.55;100.00;97445.72;5114250;28;20190;-57
2023/08/01 06:58:09;;;;;;;5.43;3.70;;;;;;;17.41;100.00;97458.09;5113922;28;20259;-57
2023/08/01 07:00:56;;;;;;;7.23;4.20;;;;;;;17.64;100.00;97480.25;5114146;28;20210;-56
2023/08/01 07:03:43;;;;;;;4.30;3.90;;;;;;;17.71;100.00;97510.69;5112722;28;20268;-57
2023/08/01 07:06:30;;;;;;;6.67;4.97;;;;;;;17.66;100.00;97530.94;5112308;28;20210;-57
2023/08/01 07:09:17;;;;;;;5.13;4.63;;;;;;;17.66;100.00;97638.91;5114052;28;20296;-56
2023/08/01 07:12:07;;;;;;;5.40;4.90;;;;;;;17.84;100.00;97629.72;5113861;28;20707;-56
2023/08/01 07:14:54;;;;;;;5.33;4.83;;;;;;;17.87;100.00;97654.31;5113879;28;20220;-56
2023/08/01 07:17:40;;;;;;;7.40;5.10;;;;;;;17.89;100.00;97643.44;5113793;28;20187;-56
2023/08/01 07:20:27;;;;;;;5.77;5.17;;;;;;;18.13;100.00;97632.44;5112357;28;20681;-56
2023/08/01 07:23:15;;;;;;;5.30;4.80;;;;;;;18.34;100.00;97607.63;5112666;28;20197;-56
2023/08/01 07:26:01;;;;;;;6.03;5.07;;;;;;;18.47;100.00;97615.00;5113778;28;20193;-56
2023/08/01 07:28:50;;;;;;;5.20;4.17;;;;;;;18.83;100.00;97605.19;5113375;28;20217;-56
2023/08/01 07:31:37;;;;;;;4.20;3.80;;;;;;;18.66;100.00;97608.25;5113454;28;20218;-56
2023/08/01 07:34:24;;;;;;;5.27;3.60;;;;;;;18.56;100.00;97595.13;5113459;28;20704;-56
2023/08/01 07:37:11;;;;;;;4.73;3.30;;;;;;;18.58;100.00;97607.31;5113322;28;20194;-56
2023/08/01 07:39:58;;;;;;;7.83;4.00;;;;;;;18.72;100.00;97600.31;5112478;28;20228;-56
2023/08/01 07:42:46;;;;;;;4.73;3.83;;;;;;;18.47;100.00;97599.75;5113542;28;20190;-56
2023/08/01 07:45:35;;;;;;;5.27;3.67;;;;;;;18.37;100.00;97607.25;5113380;28;20208;-56
2023/08/01 07:48:22;;;;;;;4.37;3.53;;;;;;;18.02;100.00;97606.13;5112888;28;20221;-56
2023/08/01 07:51:11;;;;;;;3.60;3.17;;;;;;;17.84;100.00;97610.97;5112061;28;20264;-56
2023/08/01 07:53:58;;;;;;;4.83;3.63;;;;;;;17.74;100.00;97619.28;5113355;28;20186;-56
2023/08/01 07:56:48;;;;;;;4.00;3.20;;;;;;;17.59;100.00;97621.06;5113207;28;20232;-56
2023/08/01 07:59:35;;;;;;;4.80;3.50;;;;;;;17.34;100.00;97612.38;5113284;28;20264;-56
2023/08/01 08:02:23;;;;;;;5.87;3.77;;;;;;;17.56;100.00;97614.19;5113234;28;20194;-56
2023/08/01 08:05:11;;;;;;;4.10;3.00;;;;;;;17.76;100.00;97622.63;5111957;28;20244;-56
2023/08/01 08:07:57;;;;;;;5.17;3.30;;;;;;;17.90;100.00;97626.34;5113050;28;20217;-56
2023/08/01 08:10:44;;;;;;;6.17;3.20;;;;;;;17.86;100.00;97607.13;5113343;28;20194;-56
2023/08/01 08:13:32;;;;;;;6.57;3.17;;;;;;;17.96;100.00;97596.16;5111900;28;20190;-56
2023/08/01 08:16:18;;;;;;;11.03;5.57;;;;;;;18.12;100.00;97593.28;5114938;28;20186;-56
2023/08/01 08:19:07;;;;;;;11.80;7.10;;;;;;;18.32;100.00;97598.91;5117302;28;20206;-56
2023/08/01 08:21:54;;;;;;;9.03;3.23;;;;;;;18.28;100.00;97579.69;5115649;28;20194;-56
2023/08/01 08:24:41;;;;;;;6.00;3.37;;;;;;;18.47;100.00;97577.47;5117143;28;20198;-56
2023/08/01 08:27:28;;;;;;;5.17;2.73;;;;;;;18.65;100.00;97569.06;5117031;28;20214;-56
2023/08/01 08:30:15;;;;;;;7.07;3.17;;;;;;;18.95;100.00;97569.81;5116995;28;20327;-56
2023/08/01 08:33:04;;;;;;;6.07;3.60;;;;;;;19.04;100.00;97563.31;5117039;28;20194;-56
2023/08/01 08:35:52;;;;;;;5.93;3.63;;;;;;;19.19;100.00;97561.38;5115330;28;20221;-56
2023/08/01 08:38:39;;;;;;;5.30;2.53;;;;;;;19.33;100.00;97571.22;5116807;28;20440;-55
2023/08/01 08:41:28;;;;;;;5.77;3.10;;;;;;;19.35;100.00;97574.53;5116835;28;20197;-56
2023/08/01 08:44:16;;;;;;;7.17;3.33;;;;;;;18.98;100.00;97572.09;5116752;28;20389;-56
2023/08/01 08:47:04;;;;;;;5.70;2.70;;;;;;;19.09;100.00;97566.22;5116602;28;20689;-55
2023/08/01 08:49:53;;;;;;;6.40;2.90;;;;;;;19.30;100.00;97574.31;5115276;28;20193;-56
2023/08/01 08:52:42;;;;;;;6.10;3.60;;;;;;;19.52;100.00;97566.22;5116708;28;20263;-56
2023/08/01 08:55:31;;;;;;;8.43;2.73;;;;;;;19.49;100.00;97571.97;5116623;28;20255;-56
2023/08/01 08:58:18;;;;;;;6.07;3.10;;;;;;;19.51;100.00;97564.56;5116535;28;20198;-55
2023/08/01 09:01:06;;;;;;;7.87;3.90;;;;;;;19.85;100.00;97570.00;5116467;28;20214;-55
2023/08/01 09:03:55;;;;;;;3.70;2.73;;;;;;;19.78;100.00;97577.19;5115483;28;20593;-56
2023/08/01 09:06:47;;;;;;;5.10;2.83;;;;;;;19.84;100.00;97575.59;5114707;28;20182;-56
2023/08/01 09:09:39;;;;;;;5.00;2.47;;;;;;;19.89;100.00;97573.16;5115965;28;20213;-56
2023/08/01 09:12:27;;;;;;;8.47;3.23;;;;;;;19.99;100.00;97573.63;5116326;28;20198;-56
2023/08/01 09:15:14;;;;;;;5.10;2.93;;;;;;;20.07;100.00;97565.38;5116230;28;20194;-58
2023/08/01 09:18:01;;;;;;;6.63;2.70;;;;;;;20.62;100.00;97554.75;5116022;28;20199;-58
2023/08/01 09:20:50;;;;;;;5.17;3.40;;;;;;;20.90;100.00;97565.38;5114910;28;20328;-58
2023/08/01 09:23:37;;;;;;;5.80;2.90;;;;;;;20.72;100.00;97556.03;5116015;28;20192;-58
2023/08/01 09:26:26;;;;;;;5.33;2.43;;;;;;;20.74;100.00;97556.63;5115913;28;20193;-58
2023/08/01 09:29:12;;;;;;;6.47;3.53;;;;;;;21.15;100.00;97561.94;5115111;28;20221;-58
2023/08/01 09:31:59;;;;;;;5.27;2.50;;;;;;;21.39;100.00;97557.00;5115957;28;20201;-58
2023/08/01 09:34:46;;;;;;;6.03;2.40;;;;;;;22.11;100.00;97558.06;5112797;28;20579;-58
2023/08/01 09:37:41;;;;;;;9.27;4.47;;;;;;;21.85;100.00;97567.78;5114485;28;20218;-58
2023/08/01 09:40:37;;;;;;;6.30;3.10;;;;;;;21.44;100.00;97573.41;5114022;28;20268;-58
2023/08/01 09:43:25;;;;;;;5.90;3.27;;;;;;;20.69;100.00;97577.94;5114601;28;20395;-58
2023/08/01 09:46:13;;;;;;;5.60;2.70;;;;;;;19.88;100.00;97585.75;5114235;28;20199;-57
2023/08/01 09:49:08;;;;;;;3.90;2.57;;;;;;;19.22;100.00;97603.13;5114686;28;20240;-58
2023/08/01 09:51:56;;;;;;;4.10;2.60;;;;;;;18.78;100.00;97604.91;5113280;28;20190;-58
2023/08/01 09:54:43;;;;;;;5.30;3.00;;;;;;;18.70;100.00;97617.59;5114416;28;20191;-58
2023/08/01 09:57:31;;;;;;;6.10;3.07;;;;;;;18.93;100.00;97628.19;5114010;28;20193;-58
2023/08/01 10:00:21;;;;;;;4.87;2.87;;;;;;;19.15;100.00;97637.94;5114566;28;20572;-59
2023/08/01 10:03:10;;;;;;;5.23;2.70;;;;;;;19.26;100.00;97628.56;5114451;28;20202;-59
2023/08/01 10:06:00;;;;;;;4.17;2.70;;;;;;;19.41;100.00;97622.13;5112678;28;20191;-59
2023/08/01 10:08:49;;;;;;;3.13;2.37;;;;;;;19.83;100.00;97623.13;5114353;28;20214;-59
2023/08/01 10:11:40;;;;;;;3.20;2.30;;;;;;;20.04;100.00;97616.88;5113317;28;20208;-59
2023/08/01 10:14:29;;;;;;;3.20;2.10;;;;;;;20.61;100.00;97621.16;5114381;28;20198;-56
2023/08/01 10:17:20;;;;;;;3.77;2.07;;;;;;;20.75;100.00;97616.66;5114781;28;20317;-56
2023/08/01 10:20:12;;;;;;;4.37;2.60;;;;;;;20.87;100.00;97625.84;5112671;28;20715;-56
2023/08/01 10:23:01;;;;;;;4.00;2.20;;;;;;;20.48;100.00;97621.94;5114065;28;20190;-56
2023/08/01 10:25:54;;;;;;;3.43;2.00;;;;;;;21.11;100.00;97629.84;5114033;28;20194;-56
2023/08/01 10:28:51;;;;;;;5.50;3.50;;;;;;;21.29;100.00;97623.94;5113538;28;20214;-56
2023/08/01 10:31:38;;;;;;;4.07;3.08;;;;;;;21.69;100.00;97620.25;5114217;28;20197;-56
2023/08/01 10:34:27;;;;;;;3.73;2.00;;;;;;;21.64;100.00;97619.22;5113482;28;20226;-56
2023/08/01 10:37:15;;;;;;;2.77;1.80;;;;;;;21.63;100.00;97620.25;5113373;28;20365;-56
2023/08/01 10:40:02;;;;;;;3.00;1.93;;;;;;;21.21;100.00;97618.69;5113676;28;20264;-56
2023/08/01 10:42:50;;;;;;;4.80;2.57;;;;;;;20.70;100.00;97621.84;5113484;28;20205;-56
2023/08/01 10:45:37;;;;;;;3.63;2.00;;;;;;;20.30;100.00;97626.97;5113688;28;20221;-56
2023/08/01 10:48:26;;;;;;;4.33;2.10;;;;;;;20.23;100.00;97618.03;5113191;28;20222;-56
2023/08/01 10:51:14;;;;;;;4.50;2.23;;;;;;;20.81;100.00;97616.69;5112702;28;20197;-56
2023/08/01 10:54:02;;;;;;;3.27;2.10;;;;;;;21.37;100.00;97616.50;5113833;28;20210;-56
2023/08/01 10:56:50;;;;;;;3.43;2.07;;;;;;;22.42;100.00;97614.81;5113098;28;20530;-56
2023/08/01 10:59:42;;;;;;;4.87;2.60;;;;;;;23.59;100.00;97607.47;5113512;28;20248;-56
2023/08/01 11:02:30;;;;;;;2.42;1.92;;;;;;;23.04;100.00;97617.94;5113293;28;20317;-56
2023/08/01 11:05:17;;;;;;;3.08;2.10;;;;;;;21.64;100.00;97627.31;5111373;28;20198;-56
2023/08/01 11:08:06;;;;;;;3.53;2.27;;;;;;;20.62;100.00;97627.38;5112240;28;20190;-56
2023/08/01 11:10:54;;;;;;;4.70;2.27;;;;;;;19.89;100.00;97646.53;5113164;28;20332;-56
2023/08/01 11:13:41;;;;;;;3.70;2.20;;;;;;;19.52;100.00;97644.94;5113994;28;20205;-56
2023/08/01 11:16:29;;;;;;;4.27;2.70;;;;;;;19.47;100.00;97657.25;5113278;28;20186;-56
2023/08/01 11:19:21;;;;;;;4.47;2.30;;;;;;;21.02;100.00;97661.50;5113412;28;20194;-57
2023/08/01 11:22:11;;;;;;;4.20;2.77;;;;;;;24.10;100.00;97644.28;5112238;28;20241;-57
2023/08/01 11:25:03;;;;;;;4.00;2.60;;;;;;;26.45;100.00;97631.59;5111508;28;20186;-56
2023/08/01 11:27:50;;;;;;;5.18;2.17;;;;;;;26.79;100.00;97620.91;5112508;28;20195;-57
2023/08/01 11:30:38;;;;;;;3.75;2.00;;;;;;;25.72;100.00;97613.00;5112733;28;20705;-56
2023/08/01 11:33:27;;;;;;;4.10;2.20;;;;;;;26.21;100.00;97613.63;5112525;28;20194;-57
2023/08/01 11:36:14;;;;;;;2.08;1.83;;;;;;;26.14;100.00;97616.44;5107915;28;20340;-56
2023/08/01 11:39:03;;;;;;;4.10;2.35;;;;;;;28.08;100.00;97613.00;5111864;28;20194;-57
2023/08/01 11:41:52;;;;;;;3.42;1.92;;;;;;;28.85;93.82;97604.03;5112637;28;20205;-57
2023/08/01 11:44:39;;;;;;;4.35;2.03;;;;;;;26.88;100.00;97605.91;5112712;28;20313;-57
2023/08/01 11:47:27;;;;;;;2.92;2.30;;;;;;;25.21;100.00;97610.81;5112682;28;20448;-57
2023/08/01 11:50:14;;;;;;;4.90;2.78;;;;;;;24.34;100.00;97613.69;5108938;28;20287;-57
2023/08/01 11:53:02;;;;;;;5.07;2.13;;;;;;;24.09;100.00;97627.22;5112693;28;20194;-57
2023/08/01 11:55:52;;;;;;;3.65;2.58;;;;;;;24.75;100.00;97614.91;5110397;28;20677;-56
2023/08/01 11:58:42;;;;;;;4.05;2.13;;;;;;;26.92;100.00;97619.81;5111961;28;20201;-57
2023/08/01 12:01:29;;;;;;;3.78;2.25;;;;;;;28.00;99.42;97609.91;5112027;28;20225;-57
2023/08/01 12:04:25;;;;;;;3.45;1.90;;;;;;;27.54;90.12;97617.25;5111971;28;20198;-57
2023/08/01 12:07:14;;;;;;;2.80;1.85;;;;;;;25.61;100.00;97625.44;5112225;28;20190;-57
2023/08/01 12:10:02;;;;;;;3.85;1.98;;;;;;;24.69;100.00;97621.22;5112253;28;20214;-57
2023/08/01 12:12:50;;;;;;;4.63;2.17;;;;;;;24.65;100.00;97626.28;5111090;28;20677;-56
2023/08/01 12:15:39;;;;;;;2.80;1.95;;;;;;;25.68;100.00;97625.34;5111307;28;20202;-56
2023/08/01 12:18:27;;;;;;;3.08;2.03;;;;;;;25.03;100.00;97633.34;5112439;28;20194;-56
2023/08/01 12:21:36;;;;;;;2.53;2.00;;;;;;;24.57;100.00;97636.56;5110806;28;20189;-56
2023/08/01 12:24:24;;;;;;;4.95;1.88;;;;;;;25.08;100.00;97631.59;5112569;28;20202;-56
2023/08/01 12:27:16;;;;;;;3.40;1.80;;;;;;;24.41;100.00;97641.50;5112009;28;20201;-57
2023/08/01 12:30:04;;;;;;;3.25;1.77;;;;;;;23.19;100.00;97639.28;5111974;28;20213;-56
2023/08/01 12:32:54;;;;;;;3.08;1.92;;;;;;;22.49;100.00;97642.63;5112346;28;20241;-56
2023/08/01 12:35:43;;;;;;;3.85;2.53;;;;;;;22.69;100.00;97645.28;5111814;28;20226;-56
2023/08/01 12:38:31;;;;;;;3.05;2.00;;;;;;;22.46;100.00;97644.91;5112117;28;20194;-56
2023/08/01 12:41:18;;;;;;;4.15;2.10;;;;;;;22.16;100.00;97648.06;5111616;28;20276;-56
2023/08/01 12:44:05;;;;;;;4.78;2.20;;;;;;;22.55;100.00;97654.44;5112064;28;20672;-56
2023/08/01 12:46:52;;;;;;;6.40;2.40;;;;;;;26.13;100.00;97643.84;5111820;28;20202;-56
2023/08/01 12:49:40;;;;;;;4.00;2.28;;;;;;;28.73;94.48;97636.03;5110145;28;20214;-57
2023/08/01 12:52:28;;;;;;;3.78;2.42;;;;;;;30.07;78.57;97624.47;5112063;28;20256;-57
2023/08/01 12:55:15;;;;;;;2.67;1.55;;;;;;;31.15;65.38;97634.13;5112265;28;20232;-57
2023/08/01 12:58:03;;;;;;;2.88;1.35;;;;;;;30.87;66.65;97638.94;5111555;28;20185;-57
2023/08/01 13:00:50;;;;;;;3.03;1.60;;;;;;;31.37;60.38;97628.50;5112866;28;20669;-57